Startpagina
METAR-TAF:

METAR-TAF

Vliegvelden :

Nörvenich, Duitsland

breedte: 50-50N, lengte: 006-40E, hoogte: 118 m

Actueel weer

Dit bericht is 44 minuten geleden gemaakt, om 20:20 UTC
Wind 12 kt uit het westnoordwesten
Temperatuur 8°C
Vochtigheid 71%
Druk 1021 hPa
Zicht 10 km of meer
Verspreide wolken op 2500 ft
Gebroken wolken op 6000 ft

METAR: ETNN 232020Z 30012KT 9999 SCT025 BKN060 08/03 Q1021 BLU

Tijdstip: 22:04 (21:04 UTC)


TAF: ontbreekt

Waarnemingen en weersverwachtingen van meer dan 4000 vliegvelden (METAR en TAF).

De beschikbare stations zijn de gele en rode punten op de kaart.

Ga met uw muis naar het station om de naam te zien.

Klik dan om waarnemingen en weersverwachtingen te zien.

kaart wijzigen: klik op de groene knoppen met een zwart kruis om in te zoomen, op de groene knop met een streepje om uit te zoomen of op de groene pijlen voor aangrenzende kaarten.


METAR-TAF: